sensor_id;sensor_type;location;lat;lon;timestamp;pressure;altitude;pressure_sealevel;temperature;humidity
48555;BME280;34336;48.270;16.716;2023-05-23T00:01:08;109325.25;;;18.16;96.54
48555;BME280;34336;48.270;16.716;2023-05-23T00:03:35;109325.25;;;18.16;97.23
48555;BME280;34336;48.270;16.716;2023-05-23T00:06:04;109325.25;;;18.16;98.50
48555;BME280;34336;48.270;16.716;2023-05-23T00:08:31;109325.25;;;18.16;98.74
48555;BME280;34336;48.270;16.716;2023-05-23T00:10:58;109325.25;;;18.16;98.67
48555;BME280;34336;48.270;16.716;2023-05-23T00:13:24;109325.25;;;18.16;98.63
48555;BME280;34336;48.270;16.716;2023-05-23T00:15:52;109325.25;;;18.16;98.92
48555;BME280;34336;48.270;16.716;2023-05-23T00:18:18;109325.25;;;18.16;98.94
48555;BME280;34336;48.270;16.716;2023-05-23T00:20:45;109325.25;;;18.16;98.77
48555;BME280;34336;48.270;16.716;2023-05-23T00:23:12;109325.25;;;18.16;98.73
48555;BME280;34336;48.270;16.716;2023-05-23T00:25:45;109325.25;;;18.16;98.67
48555;BME280;34336;48.270;16.716;2023-05-23T00:28:19;109325.25;;;18.16;99.02
48555;BME280;34336;48.270;16.716;2023-05-23T00:30:46;109325.25;;;18.16;99.19
48555;BME280;34336;48.270;16.716;2023-05-23T00:33:15;109325.25;;;18.16;98.38
48555;BME280;34336;48.270;16.716;2023-05-23T00:35:42;109325.25;;;18.16;98.76
48555;BME280;34336;48.270;16.716;2023-05-23T00:38:08;109325.25;;;18.16;99.25
48555;BME280;34336;48.270;16.716;2023-05-23T00:40:37;109325.25;;;18.16;100.00
48555;BME280;34336;48.270;16.716;2023-05-23T00:43:03;109325.25;;;18.16;100.00
48555;BME280;34336;48.270;16.716;2023-05-23T00:45:30;109325.25;;;18.16;100.00
48555;BME280;34336;48.270;16.716;2023-05-23T00:47:57;109325.25;;;18.16;100.00
48555;BME280;34336;48.270;16.716;2023-05-23T00:50:25;109325.25;;;18.16;99.67
48555;BME280;34336;48.270;16.716;2023-05-23T00:52:56;109325.25;;;18.16;99.18
48555;BME280;34336;48.270;16.716;2023-05-23T00:55:23;109325.25;;;18.16;99.35
48555;BME280;34336;48.270;16.716;2023-05-23T00:57:52;109325.25;;;18.16;100.00
48555;BME280;34336;48.270;16.716;2023-05-23T01:00:21;109325.25;;;18.16;100.00
48555;BME280;34336;48.270;16.716;2023-05-23T01:02:48;109325.25;;;18.16;100.00
48555;BME280;34336;48.270;16.716;2023-05-23T01:05:19;109325.25;;;18.16;100.00
48555;BME280;34336;48.270;16.716;2023-05-23T01:07:48;109325.25;;;18.16;100.00
48555;BME280;34336;48.270;16.716;2023-05-23T01:10:16;109325.25;;;18.16;100.00
48555;BME280;34336;48.270;16.716;2023-05-23T01:15:12;109325.25;;;18.16;100.00
48555;BME280;34336;48.270;16.716;2023-05-23T01:17:42;109325.25;;;18.16;100.00
48555;BME280;34336;48.270;16.716;2023-05-23T01:20:11;109325.25;;;18.16;100.00
48555;BME280;34336;48.270;16.716;2023-05-23T01:25:06;109325.25;;;18.16;100.00
48555;BME280;34336;48.270;16.716;2023-05-23T01:27:50;109325.25;;;18.16;100.00
48555;BME280;34336;48.270;16.716;2023-05-23T01:30:18;109325.25;;;18.16;100.00
48555;BME280;34336;48.270;16.716;2023-05-23T01:32:50;109325.25;;;18.16;100.00
48555;BME280;34336;48.270;16.716;2023-05-23T01:35:25;109325.25;;;18.16;100.00
48555;BME280;34336;48.270;16.716;2023-05-23T01:37:53;109325.25;;;18.16;100.00
48555;BME280;34336;48.270;16.716;2023-05-23T01:40:22;109325.25;;;18.16;100.00
48555;BME280;34336;48.270;16.716;2023-05-23T01:42:49;109325.25;;;18.16;100.00
48555;BME280;34336;48.270;16.716;2023-05-23T01:45:17;109325.25;;;18.16;100.00
48555;BME280;34336;48.270;16.716;2023-05-23T01:47:44;109325.25;;;18.16;100.00
48555;BME280;34336;48.270;16.716;2023-05-23T01:50:11;109325.25;;;18.16;100.00
48555;BME280;34336;48.270;16.716;2023-05-23T01:52:38;109325.25;;;18.16;100.00
48555;BME280;34336;48.270;16.716;2023-05-23T01:55:05;109325.25;;;18.16;100.00
48555;BME280;34336;48.270;16.716;2023-05-23T01:57:41;109325.25;;;18.16;100.00
48555;BME280;34336;48.270;16.716;2023-05-23T02:00:08;109325.25;;;18.16;100.00
48555;BME280;34336;48.270;16.716;2023-05-23T02:02:44;109325.25;;;18.16;100.00
48555;BME280;34336;48.270;16.716;2023-05-23T02:05:11;109325.25;;;18.16;100.00
48555;BME280;34336;48.270;16.716;2023-05-23T02:07:38;109325.25;;;18.16;100.00
48555;BME280;34336;48.270;16.716;2023-05-23T02:10:06;109325.25;;;18.16;100.00
48555;BME280;34336;48.270;16.716;2023-05-23T02:12:34;109325.25;;;18.16;100.00
48555;BME280;34336;48.270;16.716;2023-05-23T02:15:01;109325.25;;;18.16;100.00
48555;BME280;34336;48.270;16.716;2023-05-23T02:17:29;109325.25;;;18.16;100.00
48555;BME280;34336;48.270;16.716;2023-05-23T02:19:56;109325.25;;;18.16;100.00
48555;BME280;34336;48.270;16.716;2023-05-23T02:22:22;109325.25;;;18.16;100.00
48555;BME280;34336;48.270;16.716;2023-05-23T02:24:52;109325.25;;;18.16;100.00
48555;BME280;34336;48.270;16.716;2023-05-23T02:27:19;109325.25;;;18.16;100.00
48555;BME280;34336;48.270;16.716;2023-05-23T02:29:45;109325.25;;;18.16;100.00
48555;BME280;34336;48.270;16.716;2023-05-23T02:32:12;109325.25;;;18.16;100.00
48555;BME280;34336;48.270;16.716;2023-05-23T02:34:39;109325.25;;;18.16;100.00
48555;BME280;34336;48.270;16.716;2023-05-23T02:37:06;109325.25;;;18.16;100.00
48555;BME280;34336;48.270;16.716;2023-05-23T02:39:35;109325.25;;;18.16;100.00
48555;BME280;34336;48.270;16.716;2023-05-23T02:42:02;109325.25;;;18.16;100.00
48555;BME280;34336;48.270;16.716;2023-05-23T02:44:31;109325.25;;;18.16;100.00
48555;BME280;34336;48.270;16.716;2023-05-23T02:46:57;109325.25;;;18.16;100.00
48555;BME280;34336;48.270;16.716;2023-05-23T02:49:24;109325.25;;;18.16;100.00
48555;BME280;34336;48.270;16.716;2023-05-23T02:51:51;109325.25;;;18.16;100.00
48555;BME280;34336;48.270;16.716;2023-05-23T02:54:17;109325.25;;;18.16;100.00
48555;BME280;34336;48.270;16.716;2023-05-23T02:56:44;109325.25;;;18.16;100.00
48555;BME280;34336;48.270;16.716;2023-05-23T02:59:11;109325.25;;;18.16;100.00
48555;BME280;34336;48.270;16.716;2023-05-23T03:01:39;109325.25;;;18.16;100.00
48555;BME280;34336;48.270;16.716;2023-05-23T03:04:05;109325.25;;;18.16;100.00
48555;BME280;34336;48.270;16.716;2023-05-23T03:06:32;109325.25;;;18.16;100.00
48555;BME280;34336;48.270;16.716;2023-05-23T03:09:00;109325.25;;;18.16;100.00
48555;BME280;34336;48.270;16.716;2023-05-23T03:11:26;109325.25;;;18.16;100.00
48555;BME280;34336;48.270;16.716;2023-05-23T03:13:55;109325.25;;;18.16;100.00
48555;BME280;34336;48.270;16.716;2023-05-23T03:16:21;109325.25;;;18.16;100.00
48555;BME280;34336;48.270;16.716;2023-05-23T03:18:49;109325.25;;;18.16;100.00
48555;BME280;34336;48.270;16.716;2023-05-23T03:21:16;109325.25;;;18.16;100.00
48555;BME280;34336;48.270;16.716;2023-05-23T03:23:42;109325.25;;;18.16;100.00
48555;BME280;34336;48.270;16.716;2023-05-23T03:26:09;109325.25;;;18.16;100.00
48555;BME280;34336;48.270;16.716;2023-05-23T03:28:36;109325.25;;;18.16;100.00
48555;BME280;34336;48.270;16.716;2023-05-23T03:31:02;109325.25;;;18.16;100.00
48555;BME280;34336;48.270;16.716;2023-05-23T03:33:29;109325.25;;;18.16;100.00
48555;BME280;34336;48.270;16.716;2023-05-23T03:35:56;109325.25;;;18.16;100.00
48555;BME280;34336;48.270;16.716;2023-05-23T03:38:23;109325.25;;;18.16;98.74
48555;BME280;34336;48.270;16.716;2023-05-23T03:40:50;109325.25;;;18.16;91.94
48555;BME280;34336;48.270;16.716;2023-05-23T03:43:17;109325.25;;;18.16;87.80
48555;BME280;34336;48.270;16.716;2023-05-23T03:45:43;109325.25;;;18.16;84.26
48555;BME280;34336;48.270;16.716;2023-05-23T03:48:13;109325.25;;;18.16;81.53
48555;BME280;34336;48.270;16.716;2023-05-23T03:50:40;109325.25;;;18.16;77.91
48555;BME280;34336;48.270;16.716;2023-05-23T03:53:08;109325.25;;;18.16;75.89
48555;BME280;34336;48.270;16.716;2023-05-23T03:55:37;109325.25;;;18.16;76.08
48555;BME280;34336;48.270;16.716;2023-05-23T03:58:04;109325.25;;;18.16;76.17
48555;BME280;34336;48.270;16.716;2023-05-23T04:00:31;109325.25;;;18.16;76.14
48555;BME280;34336;48.270;16.716;2023-05-23T04:03:00;109325.25;;;18.16;76.69
48555;BME280;34336;48.270;16.716;2023-05-23T04:05:28;109325.25;;;18.16;77.58
48555;BME280;34336;48.270;16.716;2023-05-23T04:07:54;109325.25;;;18.16;77.90
48555;BME280;34336;48.270;16.716;2023-05-23T04:10:22;109325.25;;;18.16;78.03
48555;BME280;34336;48.270;16.716;2023-05-23T04:12:49;109325.25;;;18.16;76.84
48555;BME280;34336;48.270;16.716;2023-05-23T04:15:17;109325.25;;;18.16;75.34
48555;BME280;34336;48.270;16.716;2023-05-23T04:18:03;109325.25;;;18.16;73.65
48555;BME280;34336;48.270;16.716;2023-05-23T04:20:31;109325.25;;;18.16;71.96
48555;BME280;34336;48.270;16.716;2023-05-23T04:22:57;109325.25;;;18.16;67.89
48555;BME280;34336;48.270;16.716;2023-05-23T04:25:25;109325.25;;;18.16;63.33
48555;BME280;34336;48.270;16.716;2023-05-23T04:28:06;109325.25;;;18.16;62.20
48555;BME280;34336;48.270;16.716;2023-05-23T04:30:35;109325.25;;;18.16;61.23
48555;BME280;34336;48.270;16.716;2023-05-23T04:33:03;109325.25;;;18.16;59.45
48555;BME280;34336;48.270;16.716;2023-05-23T04:35:29;109325.25;;;18.16;60.03
48555;BME280;34336;48.270;16.716;2023-05-23T04:38:00;109325.25;;;18.16;61.30
48555;BME280;34336;48.270;16.716;2023-05-23T04:40:28;109325.25;;;18.16;57.62
48555;BME280;34336;48.270;16.716;2023-05-23T04:43:16;109325.25;;;18.16;55.61
48555;BME280;34336;48.270;16.716;2023-05-23T04:45:48;109325.25;;;18.16;50.34
48555;BME280;34336;48.270;16.716;2023-05-23T04:48:31;109325.25;;;18.16;48.34
48555;BME280;34336;48.270;16.716;2023-05-23T04:51:00;109325.25;;;18.16;47.20
48555;BME280;34336;48.270;16.716;2023-05-23T04:53:31;109325.25;;;18.16;48.24
48555;BME280;34336;48.270;16.716;2023-05-23T04:55:58;109325.25;;;18.16;46.51
48555;BME280;34336;48.270;16.716;2023-05-23T04:58:25;109325.25;;;18.16;44.30
48555;BME280;34336;48.270;16.716;2023-05-23T05:00:55;109325.25;;;18.16;44.51
48555;BME280;34336;48.270;16.716;2023-05-23T05:03:22;109325.25;;;18.16;41.98
48555;BME280;34336;48.270;16.716;2023-05-23T05:05:50;109325.25;;;18.16;41.27
48555;BME280;34336;48.270;16.716;2023-05-23T05:08:18;109325.25;;;18.16;40.26
48555;BME280;34336;48.270;16.716;2023-05-23T05:10:45;109325.25;;;18.16;40.57
48555;BME280;34336;48.270;16.716;2023-05-23T05:13:14;109325.25;;;18.16;44.40
48555;BME280;34336;48.270;16.716;2023-05-23T05:15:44;109325.25;;;18.16;45.83
48555;BME280;34336;48.270;16.716;2023-05-23T05:18:12;109325.25;;;18.16;43.01
48555;BME280;34336;48.270;16.716;2023-05-23T05:20:39;109325.25;;;18.16;44.44
48555;BME280;34336;48.270;16.716;2023-05-23T05:23:07;109325.25;;;18.16;42.77
48555;BME280;34336;48.270;16.716;2023-05-23T05:25:35;109325.25;;;18.16;39.51
48555;BME280;34336;48.270;16.716;2023-05-23T05:28:03;109325.25;;;18.16;38.32
48555;BME280;34336;48.270;16.716;2023-05-23T05:30:35;109325.25;;;18.16;37.78
48555;BME280;34336;48.270;16.716;2023-05-23T05:33:03;109325.25;;;18.16;37.08
48555;BME280;34336;48.270;16.716;2023-05-23T05:35:31;109325.25;;;18.16;37.30
48555;BME280;34336;48.270;16.716;2023-05-23T05:37:58;109325.25;;;18.16;36.14
48555;BME280;34336;48.270;16.716;2023-05-23T05:40:25;109325.25;;;18.16;35.99
48555;BME280;34336;48.270;16.716;2023-05-23T05:42:52;109325.25;;;18.16;34.91
48555;BME280;34336;48.270;16.716;2023-05-23T05:45:20;109325.25;;;18.16;35.08
48555;BME280;34336;48.270;16.716;2023-05-23T05:47:47;109325.25;;;18.16;35.48
48555;BME280;34336;48.270;16.716;2023-05-23T05:50:17;109325.25;;;18.16;34.64
48555;BME280;34336;48.270;16.716;2023-05-23T05:52:45;109325.25;;;18.16;34.81
48555;BME280;34336;48.270;16.716;2023-05-23T05:55:12;109325.25;;;18.16;34.41
48555;BME280;34336;48.270;16.716;2023-05-23T05:57:44;109325.25;;;18.16;35.25
48555;BME280;34336;48.270;16.716;2023-05-23T06:00:12;109325.25;;;18.16;34.48
48555;BME280;34336;48.270;16.716;2023-05-23T06:02:51;109325.25;;;18.16;36.04
48555;BME280;34336;48.270;16.716;2023-05-23T06:05:35;109325.25;;;18.16;35.78
48555;BME280;34336;48.270;16.716;2023-05-23T06:08:02;109325.25;;;18.16;35.74
48555;BME280;34336;48.270;16.716;2023-05-23T06:10:30;109325.25;;;18.16;37.12
48555;BME280;34336;48.270;16.716;2023-05-23T06:12:57;109325.25;;;18.16;37.29
48555;BME280;34336;48.270;16.716;2023-05-23T06:15:24;109325.25;;;18.16;35.85
48555;BME280;34336;48.270;16.716;2023-05-23T06:17:51;109325.25;;;18.16;36.45
48555;BME280;34336;48.270;16.716;2023-05-23T06:20:18;109325.25;;;18.16;36.48
48555;BME280;34336;48.270;16.716;2023-05-23T06:22:46;109325.25;;;18.16;37.14
48555;BME280;34336;48.270;16.716;2023-05-23T06:25:12;109325.25;;;18.16;37.57
48555;BME280;34336;48.270;16.716;2023-05-23T06:27:39;109325.25;;;18.16;37.84
48555;BME280;34336;48.270;16.716;2023-05-23T06:30:06;109325.25;;;18.16;38.86
48555;BME280;34336;48.270;16.716;2023-05-23T06:32:33;109325.25;;;18.16;41.84
48555;BME280;34336;48.270;16.716;2023-05-23T06:34:59;109325.25;;;18.16;41.56
48555;BME280;34336;48.270;16.716;2023-05-23T06:37:26;109325.25;;;18.16;41.98
48555;BME280;34336;48.270;16.716;2023-05-23T06:39:55;109325.25;;;18.16;41.95
48555;BME280;34336;48.270;16.716;2023-05-23T06:42:21;109325.25;;;18.16;42.51
48555;BME280;34336;48.270;16.716;2023-05-23T06:44:55;109325.25;;;18.16;41.40
48555;BME280;34336;48.270;16.716;2023-05-23T06:47:23;109325.25;;;18.16;42.30
48555;BME280;34336;48.270;16.716;2023-05-23T06:49:50;109325.25;;;18.16;41.14
48555;BME280;34336;48.270;16.716;2023-05-23T06:52:16;109325.25;;;18.16;41.75
48555;BME280;34336;48.270;16.716;2023-05-23T06:54:43;109325.25;;;18.16;40.67
48555;BME280;34336;48.270;16.716;2023-05-23T06:57:10;109325.25;;;18.16;41.39
48555;BME280;34336;48.270;16.716;2023-05-23T06:59:37;109325.25;;;18.16;39.74
48555;BME280;34336;48.270;16.716;2023-05-23T07:02:04;109325.25;;;18.16;41.93
48555;BME280;34336;48.270;16.716;2023-05-23T07:04:30;109325.25;;;18.16;39.68
48555;BME280;34336;48.270;16.716;2023-05-23T07:07:02;109325.25;;;18.16;40.32
48555;BME280;34336;48.270;16.716;2023-05-23T07:09:29;109325.25;;;18.16;38.63
48555;BME280;34336;48.270;16.716;2023-05-23T07:12:05;109325.25;;;18.16;38.41
48555;BME280;34336;48.270;16.716;2023-05-23T07:14:34;109325.25;;;18.16;39.26
48555;BME280;34336;48.270;16.716;2023-05-23T07:17:04;109325.25;;;18.16;37.87
48555;BME280;34336;48.270;16.716;2023-05-23T07:19:32;109325.25;;;18.16;38.32
48555;BME280;34336;48.270;16.716;2023-05-23T07:21:59;109325.25;;;18.16;38.53
48555;BME280;34336;48.270;16.716;2023-05-23T07:24:29;109325.25;;;18.16;38.52
48555;BME280;34336;48.270;16.716;2023-05-23T07:26:56;109325.25;;;18.16;39.51
48555;BME280;34336;48.270;16.716;2023-05-23T07:29:24;109325.25;;;18.16;39.25
48555;BME280;34336;48.270;16.716;2023-05-23T07:31:52;109325.25;;;18.16;38.17
48555;BME280;34336;48.270;16.716;2023-05-23T07:34:20;109325.25;;;18.16;40.08
48555;BME280;34336;48.270;16.716;2023-05-23T07:36:53;109325.25;;;18.16;39.17
48555;BME280;34336;48.270;16.716;2023-05-23T07:39:22;109325.25;;;18.16;41.00
48555;BME280;34336;48.270;16.716;2023-05-23T07:41:51;109325.25;;;18.16;40.30
48555;BME280;34336;48.270;16.716;2023-05-23T07:44:18;109325.25;;;18.16;39.19
48555;BME280;34336;48.270;16.716;2023-05-23T07:46:49;109325.25;;;18.16;40.02
48555;BME280;34336;48.270;16.716;2023-05-23T07:49:16;109325.25;;;18.16;39.95
48555;BME280;34336;48.270;16.716;2023-05-23T07:51:42;109325.25;;;18.16;39.36
48555;BME280;34336;48.270;16.716;2023-05-23T07:54:09;109325.25;;;18.16;40.20
48555;BME280;34336;48.270;16.716;2023-05-23T07:56:38;109325.25;;;18.16;41.22
48555;BME280;34336;48.270;16.716;2023-05-23T07:59:05;109325.25;;;18.16;43.37
48555;BME280;34336;48.270;16.716;2023-05-23T08:01:34;109325.25;;;18.16;42.40
48555;BME280;34336;48.270;16.716;2023-05-23T08:04:03;109325.25;;;18.16;43.22
48555;BME280;34336;48.270;16.716;2023-05-23T08:06:33;109325.25;;;18.16;45.33
48555;BME280;34336;48.270;16.716;2023-05-23T08:09:04;109325.25;;;18.16;46.54
48555;BME280;34336;48.270;16.716;2023-05-23T08:11:34;109325.25;;;18.16;44.90
48555;BME280;34336;48.270;16.716;2023-05-23T08:14:01;109325.25;;;18.16;45.28
48555;BME280;34336;48.270;16.716;2023-05-23T08:16:37;109325.25;;;18.16;44.15
48555;BME280;34336;48.270;16.716;2023-05-23T08:19:09;109325.25;;;18.16;44.56
48555;BME280;34336;48.270;16.716;2023-05-23T08:21:36;109325.25;;;18.16;43.03
48555;BME280;34336;48.270;16.716;2023-05-23T08:24:03;109325.25;;;18.16;44.15
48555;BME280;34336;48.270;16.716;2023-05-23T08:26:31;109325.25;;;18.16;43.60
48555;BME280;34336;48.270;16.716;2023-05-23T08:29:02;109325.25;;;18.16;43.20
48555;BME280;34336;48.270;16.716;2023-05-23T08:31:30;109325.25;;;18.16;43.55
48555;BME280;34336;48.270;16.716;2023-05-23T08:33:58;109325.25;;;18.16;45.91
48555;BME280;34336;48.270;16.716;2023-05-23T08:36:25;109325.25;;;18.16;44.38
48555;BME280;34336;48.270;16.716;2023-05-23T08:38:52;109325.25;;;18.16;44.44
48555;BME280;34336;48.270;16.716;2023-05-23T08:41:32;109325.25;;;18.16;44.70
48555;BME280;34336;48.270;16.716;2023-05-23T08:44:03;109325.25;;;18.16;43.51
48555;BME280;34336;48.270;16.716;2023-05-23T08:46:43;109325.25;;;18.16;42.68
48555;BME280;34336;48.270;16.716;2023-05-23T08:49:12;109325.25;;;18.16;43.38
48555;BME280;34336;48.270;16.716;2023-05-23T08:51:44;109325.25;;;18.16;43.07
48555;BME280;34336;48.270;16.716;2023-05-23T08:54:18;109325.25;;;18.16;44.56
48555;BME280;34336;48.270;16.716;2023-05-23T08:56:44;109325.25;;;18.16;43.11
48555;BME280;34336;48.270;16.716;2023-05-23T08:59:11;109325.25;;;18.16;44.87
48555;BME280;34336;48.270;16.716;2023-05-23T09:01:38;109325.25;;;18.16;43.26
48555;BME280;34336;48.270;16.716;2023-05-23T09:04:08;109325.25;;;18.16;42.96
48555;BME280;34336;48.270;16.716;2023-05-23T09:07:03;109325.25;;;18.16;42.90
48555;BME280;34336;48.270;16.716;2023-05-23T09:09:32;109325.25;;;18.16;44.33
48555;BME280;34336;48.270;16.716;2023-05-23T09:12:01;109325.25;;;18.16;42.05
48555;BME280;34336;48.270;16.716;2023-05-23T09:14:29;109325.25;;;18.16;42.04
48555;BME280;34336;48.270;16.716;2023-05-23T09:17:01;109325.25;;;18.16;42.49
48555;BME280;34336;48.270;16.716;2023-05-23T09:19:30;109325.25;;;18.16;41.84
48555;BME280;34336;48.270;16.716;2023-05-23T09:22:14;109325.25;;;18.16;45.00
48555;BME280;34336;48.270;16.716;2023-05-23T09:24:55;109325.25;;;18.16;43.19
48555;BME280;34336;48.270;16.716;2023-05-23T09:27:22;109325.25;;;18.16;44.27
48555;BME280;34336;48.270;16.716;2023-05-23T09:29:49;109325.25;;;18.16;44.09
48555;BME280;34336;48.270;16.716;2023-05-23T09:32:17;109325.25;;;18.16;41.88
48555;BME280;34336;48.270;16.716;2023-05-23T09:34:55;109325.25;;;18.16;43.51
48555;BME280;34336;48.270;16.716;2023-05-23T09:37:29;109325.25;;;18.16;40.26
48555;BME280;34336;48.270;16.716;2023-05-23T09:40:04;109325.25;;;18.16;42.40
48555;BME280;34336;48.270;16.716;2023-05-23T09:42:32;109325.25;;;18.16;41.90
48555;BME280;34336;48.270;16.716;2023-05-23T09:44:59;109325.25;;;18.16;42.08
48555;BME280;34336;48.270;16.716;2023-05-23T09:47:30;109325.25;;;18.16;42.10
48555;BME280;34336;48.270;16.716;2023-05-23T09:49:57;109325.25;;;18.16;41.77
48555;BME280;34336;48.270;16.716;2023-05-23T09:52:24;109325.25;;;18.16;42.03
48555;BME280;34336;48.270;16.716;2023-05-23T09:54:51;109325.25;;;18.16;43.06
48555;BME280;34336;48.270;16.716;2023-05-23T09:57:18;109325.25;;;18.16;43.04
48555;BME280;34336;48.270;16.716;2023-05-23T09:59:48;109325.25;;;18.16;41.74
48555;BME280;34336;48.270;16.716;2023-05-23T10:02:17;109325.25;;;18.16;43.38
48555;BME280;34336;48.270;16.716;2023-05-23T10:04:50;109325.25;;;18.16;44.44
48555;BME280;34336;48.270;16.716;2023-05-23T10:07:19;109325.25;;;18.16;42.85
48555;BME280;34336;48.270;16.716;2023-05-23T10:09:53;109325.25;;;18.16;42.51
48555;BME280;34336;48.270;16.716;2023-05-23T10:15:03;109325.25;;;18.16;42.31
48555;BME280;34336;48.270;16.716;2023-05-23T10:20:16;109325.25;;;18.16;40.75
48555;BME280;34336;48.270;16.716;2023-05-23T10:22:43;109325.25;;;18.16;41.79
48555;BME280;34336;48.270;16.716;2023-05-23T10:25:10;109325.25;;;18.16;42.30
48555;BME280;34336;48.270;16.716;2023-05-23T10:27:37;109325.25;;;18.16;43.15
48555;BME280;34336;48.270;16.716;2023-05-23T10:30:07;109325.25;;;18.16;41.58
48555;BME280;34336;48.270;16.716;2023-05-23T10:32:34;109325.25;;;18.16;40.88
48555;BME280;34336;48.270;16.716;2023-05-23T10:37:44;109325.25;;;18.16;39.21
48555;BME280;34336;48.270;16.716;2023-05-23T10:45:45;109325.25;;;18.16;40.58
48555;BME280;34336;48.270;16.716;2023-05-23T10:51:01;109325.25;;;18.16;41.24
48555;BME280;34336;48.270;16.716;2023-05-23T10:53:29;109325.25;;;18.16;42.54
48555;BME280;34336;48.270;16.716;2023-05-23T10:55:56;109325.25;;;18.16;41.64
48555;BME280;34336;48.270;16.716;2023-05-23T10:58:23;109325.25;;;18.16;41.74
48555;BME280;34336;48.270;16.716;2023-05-23T11:00:53;109325.25;;;18.16;41.01
48555;BME280;34336;48.270;16.716;2023-05-23T11:06:39;109325.25;;;18.16;41.81
48555;BME280;34336;48.270;16.716;2023-05-23T11:09:14;109325.25;;;18.16;40.54
48555;BME280;34336;48.270;16.716;2023-05-23T11:14:29;109325.25;;;18.16;42.46
48555;BME280;34336;48.270;16.716;2023-05-23T11:17:00;109325.25;;;18.16;42.92
48555;BME280;34336;48.270;16.716;2023-05-23T11:19:27;109325.25;;;18.16;41.54
48555;BME280;34336;48.270;16.716;2023-05-23T11:21:55;109325.25;;;18.16;40.93
48555;BME280;34336;48.270;16.716;2023-05-23T11:24:22;109325.25;;;18.16;42.56
48555;BME280;34336;48.270;16.716;2023-05-23T11:26:53;109325.25;;;18.16;43.44
48555;BME280;34336;48.270;16.716;2023-05-23T11:29:26;109325.25;;;18.16;47.69
48555;BME280;34336;48.270;16.716;2023-05-23T11:31:54;109325.25;;;18.16;46.61
48555;BME280;34336;48.270;16.716;2023-05-23T11:34:22;109325.25;;;18.16;44.84
48555;BME280;34336;48.270;16.716;2023-05-23T11:36:54;109325.25;;;18.16;45.04
48555;BME280;34336;48.270;16.716;2023-05-23T11:39:21;109325.25;;;18.16;45.17
48555;BME280;34336;48.270;16.716;2023-05-23T11:42:00;109325.25;;;18.16;43.16
48555;BME280;34336;48.270;16.716;2023-05-23T11:44:27;109325.25;;;18.16;42.99
48555;BME280;34336;48.270;16.716;2023-05-23T11:47:00;109325.25;;;18.16;43.62
48555;BME280;34336;48.270;16.716;2023-05-23T11:49:28;109325.25;;;18.16;41.82
48555;BME280;34336;48.270;16.716;2023-05-23T11:51:55;109325.25;;;18.16;41.00
48555;BME280;34336;48.270;16.716;2023-05-23T11:54:22;109325.25;;;18.16;40.98
48555;BME280;34336;48.270;16.716;2023-05-23T11:56:49;109325.25;;;18.16;41.23
48555;BME280;34336;48.270;16.716;2023-05-23T11:59:16;109325.25;;;18.16;40.23
48555;BME280;34336;48.270;16.716;2023-05-23T12:01:43;109325.25;;;18.16;39.00
48555;BME280;34336;48.270;16.716;2023-05-23T12:04:09;109325.25;;;18.16;41.12
48555;BME280;34336;48.270;16.716;2023-05-23T12:06:39;109325.25;;;18.16;41.24
48555;BME280;34336;48.270;16.716;2023-05-23T12:09:10;109325.25;;;18.16;40.27
48555;BME280;34336;48.270;16.716;2023-05-23T12:11:37;109325.25;;;18.16;39.41
48555;BME280;34336;48.270;16.716;2023-05-23T12:14:05;109325.25;;;18.16;40.06
48555;BME280;34336;48.270;16.716;2023-05-23T12:16:32;109325.25;;;18.16;39.58
48555;BME280;34336;48.270;16.716;2023-05-23T12:18:59;109325.25;;;18.16;39.39
48555;BME280;34336;48.270;16.716;2023-05-23T12:21:39;109325.25;;;18.16;40.29
48555;BME280;34336;48.270;16.716;2023-05-23T12:26:45;109325.25;;;18.16;38.87
48555;BME280;34336;48.270;16.716;2023-05-23T12:29:12;109325.25;;;18.16;38.47
48555;BME280;34336;48.270;16.716;2023-05-23T12:31:38;109325.25;;;18.16;37.59
48555;BME280;34336;48.270;16.716;2023-05-23T12:34:05;109325.25;;;18.16;37.80
48555;BME280;34336;48.270;16.716;2023-05-23T12:36:32;109325.25;;;18.16;38.15
48555;BME280;34336;48.270;16.716;2023-05-23T12:39:04;109325.25;;;18.16;38.79
48555;BME280;34336;48.270;16.716;2023-05-23T12:41:32;109325.25;;;18.16;37.91
48555;BME280;34336;48.270;16.716;2023-05-23T12:43:58;109325.25;;;18.16;37.14
48555;BME280;34336;48.270;16.716;2023-05-23T12:46:26;109325.25;;;18.16;38.07
48555;BME280;34336;48.270;16.716;2023-05-23T12:48:53;109325.25;;;18.16;37.43
48555;BME280;34336;48.270;16.716;2023-05-23T12:51:19;109325.25;;;18.16;38.31
48555;BME280;34336;48.270;16.716;2023-05-23T12:53:46;109325.25;;;18.16;38.58
48555;BME280;34336;48.270;16.716;2023-05-23T12:56:13;109325.25;;;18.16;37.73
48555;BME280;34336;48.270;16.716;2023-05-23T12:58:39;109325.25;;;18.16;37.54
48555;BME280;34336;48.270;16.716;2023-05-23T13:01:06;109325.25;;;18.16;36.82
48555;BME280;34336;48.270;16.716;2023-05-23T13:03:33;109325.25;;;18.16;39.01
48555;BME280;34336;48.270;16.716;2023-05-23T13:06:00;109325.25;;;18.16;39.03
48555;BME280;34336;48.270;16.716;2023-05-23T13:08:27;109325.25;;;18.16;39.25
48555;BME280;34336;48.270;16.716;2023-05-23T13:10:54;109325.25;;;18.16;40.66
48555;BME280;34336;48.270;16.716;2023-05-23T13:13:21;109325.25;;;18.16;39.56
48555;BME280;34336;48.270;16.716;2023-05-23T13:15:48;109325.25;;;18.16;38.54